KLM1517 EHAM-LEBL
Flight info
| Callsign | KLM1517 |
|---|---|
| Flight time | N/A |
| Altitude | 31000 |
| Route | WOODY N872 MEDIL/N0452F350 DCT KOVIN DCT DUCRA UM728 RESMI UN857 DISAK DCT DIRMO DCT VALKU DCT ATSUP DCT MINSO DCT DEGOL DCT PPG DCT ALBER |
| Aircraft | A21N/M-SDE2E3FGHIRWXY/LB1 |
Departure
| Time | 2026-05-08 08:16 |
|---|---|
| Airport | Amsterdam Airport Schiphol (EHAM) |
Arrival
| Time | N/A |
|---|---|
| Airport | Josep Tarradellas Barcelona-El Prat Airport (LEBL) |
| Time | Latitude | Longitude | Altitude | Speed | Heading |
|---|---|---|---|---|---|
| 2026-05-08 07:28 | 52.30709 | 4.77155 | 2 ft | 0 kts | 3° |
| 2026-05-08 08:06 | 52.30698 | 4.77156 | 2 ft | 4 kts | 11° |
| 2026-05-08 08:06 | 52.30680 | 4.77145 | 2 ft | 4 kts | 8° |
| 2026-05-08 08:07 | 52.30664 | 4.77154 | 2 ft | 4 kts | 311° |
| 2026-05-08 08:07 | 52.30655 | 4.77178 | 2 ft | 1 kts | 302° |
| 2026-05-08 08:10 | 52.30658 | 4.77164 | 3 ft | 7 kts | 283° |
| 2026-05-08 08:10 | 52.30635 | 4.77052 | 2 ft | 12 kts | 222° |
| 2026-05-08 08:10 | 52.30547 | 4.77087 | 2 ft | 16 kts | 150° |
| 2026-05-08 08:11 | 52.30466 | 4.77220 | 2 ft | 14 kts | 87° |
| 2026-05-08 08:11 | 52.30509 | 4.77376 | 2 ft | 17 kts | 54° |
| 2026-05-08 08:11 | 52.30593 | 4.77548 | 2 ft | 22 kts | 39° |
| 2026-05-08 08:11 | 52.30747 | 4.77599 | 2 ft | 25 kts | 4° |
| 2026-05-08 08:12 | 52.30936 | 4.77618 | 2 ft | 29 kts | 2° |
| 2026-05-08 08:12 | 52.31152 | 4.77635 | 2 ft | 33 kts | 2° |
| 2026-05-08 08:12 | 52.31389 | 4.77660 | 2 ft | 35 kts | 356° |
| 2026-05-08 08:12 | 52.31572 | 4.77405 | 2 ft | 38 kts | 282° |
| 2026-05-08 08:13 | 52.31565 | 4.76962 | 2 ft | 41 kts | 267° |
| 2026-05-08 08:13 | 52.31549 | 4.76484 | 2 ft | 43 kts | 266° |
| 2026-05-08 08:13 | 52.31530 | 4.75978 | 2 ft | 46 kts | 267° |
| 2026-05-08 08:13 | 52.31512 | 4.75445 | 2 ft | 48 kts | 266° |
| 2026-05-08 08:14 | 52.31495 | 4.74901 | 2 ft | 35 kts | 268° |
| 2026-05-08 08:14 | 52.31530 | 4.74670 | 2 ft | 17 kts | 343° |
| 2026-05-08 08:14 | 52.31564 | 4.74663 | 2 ft | 0 kts | 356° |
| 2026-05-08 08:15 | 52.31588 | 4.74661 | 2 ft | 9 kts | 1° |
| 2026-05-08 08:15 | 52.31658 | 4.74708 | 3 ft | 14 kts | 53° |
| 2026-05-08 08:15 | 52.31672 | 4.74930 | 0 ft | 41 kts | 87° |
| 2026-05-08 08:16 | 52.31703 | 4.75864 | 2 ft | 124 kts | 86° |
| 2026-05-08 08:16 | 52.31764 | 4.77653 | 95 ft | 183 kts | 87° |
| 2026-05-08 08:16 | 52.31832 | 4.79776 | 880 ft | 186 kts | 89° |
| 2026-05-08 08:16 | 52.31495 | 4.81722 | 2030 ft | 184 kts | 128° |
| 2026-05-08 08:17 | 52.30403 | 4.83006 | 2572 ft | 210 kts | 159° |
| 2026-05-08 08:17 | 52.29425 | 4.83483 | 3056 ft | 221 kts | 165° |
| 2026-05-08 08:17 | 52.27927 | 4.84047 | 3965 ft | 226 kts | 167° |
| 2026-05-08 08:17 | 52.26386 | 4.84620 | 4917 ft | 228 kts | 169° |
| 2026-05-08 08:18 | 52.24768 | 4.84852 | 5760 ft | 238 kts | 179° |
| 2026-05-08 08:18 | 52.23039 | 4.84832 | 6295 ft | 258 kts | 181° |
| 2026-05-08 08:18 | 52.21213 | 4.84761 | 7108 ft | 265 kts | 181° |
| 2026-05-08 08:18 | 52.19382 | 4.84695 | 8045 ft | 269 kts | 181° |
| 2026-05-08 08:19 | 52.17495 | 4.84638 | 8988 ft | 273 kts | 181° |
| 2026-05-08 08:19 | 52.15580 | 4.84589 | 10006 ft | 276 kts | 181° |
| 2026-05-08 08:19 | 52.13625 | 4.84542 | 10687 ft | 290 kts | 181° |
| 2026-05-08 08:19 | 52.11520 | 4.84494 | 11032 ft | 315 kts | 181° |
| 2026-05-08 08:20 | 52.09238 | 4.84445 | 11380 ft | 338 kts | 181° |
| 2026-05-08 08:20 | 52.06829 | 4.84393 | 11929 ft | 353 kts | 181° |
| 2026-05-08 08:20 | 52.04345 | 4.84336 | 12737 ft | 359 kts | 182° |
| 2026-05-08 08:20 | 52.01853 | 4.83818 | 13565 ft | 364 kts | 196° |
| 2026-05-08 08:21 | 51.99479 | 4.82349 | 14352 ft | 368 kts | 205° |
| 2026-05-08 08:21 | 51.97155 | 4.80550 | 15113 ft | 372 kts | 207° |
| 2026-05-08 08:21 | 51.94824 | 4.78690 | 15883 ft | 376 kts | 207° |
| 2026-05-08 08:21 | 51.92465 | 4.76813 | 16644 ft | 380 kts | 207° |
| 2026-05-08 08:22 | 51.90079 | 4.74927 | 17405 ft | 383 kts | 207° |
| 2026-05-08 08:22 | 51.87670 | 4.73033 | 18162 ft | 387 kts | 207° |
| 2026-05-08 08:22 | 51.85234 | 4.71124 | 18819 ft | 390 kts | 207° |
| 2026-05-08 08:22 | 51.82775 | 4.69203 | 19444 ft | 394 kts | 207° |
| 2026-05-08 08:23 | 51.80296 | 4.67269 | 20077 ft | 397 kts | 207° |
| 2026-05-08 08:23 | 51.77798 | 4.65325 | 20713 ft | 400 kts | 207° |
| 2026-05-08 08:23 | 51.75277 | 4.63364 | 21331 ft | 404 kts | 207° |
| 2026-05-08 08:23 | 51.72772 | 4.61419 | 21936 ft | 407 kts | 206° |
| 2026-05-08 08:24 | 51.70209 | 4.59432 | 22543 ft | 410 kts | 206° |
| 2026-05-08 08:24 | 51.67623 | 4.57429 | 23132 ft | 412 kts | 206° |
| 2026-05-08 08:24 | 51.65024 | 4.55420 | 23686 ft | 416 kts | 206° |
| 2026-05-08 08:24 | 51.62403 | 4.53398 | 24134 ft | 419 kts | 206° |
| 2026-05-08 08:25 | 51.59767 | 4.51367 | 24582 ft | 422 kts | 206° |
| 2026-05-08 08:25 | 51.57111 | 4.49323 | 25026 ft | 425 kts | 206° |
| 2026-05-08 08:25 | 51.54437 | 4.47268 | 25453 ft | 427 kts | 206° |
| 2026-05-08 08:25 | 51.51744 | 4.45202 | 25873 ft | 430 kts | 206° |
| 2026-05-08 08:26 | 51.49042 | 4.43131 | 26289 ft | 432 kts | 206° |
| 2026-05-08 08:26 | 51.46318 | 4.41045 | 26702 ft | 434 kts | 206° |
| 2026-05-08 08:26 | 51.43581 | 4.38953 | 27102 ft | 437 kts | 206° |
| 2026-05-08 08:26 | 51.40834 | 4.36856 | 27479 ft | 439 kts | 206° |
| 2026-05-08 08:27 | 51.38066 | 4.34746 | 27856 ft | 441 kts | 206° |
| 2026-05-08 08:27 | 51.35287 | 4.32633 | 28298 ft | 442 kts | 206° |
| 2026-05-08 08:27 | 51.32517 | 4.30529 | 28866 ft | 440 kts | 206° |
| 2026-05-08 08:27 | 51.29757 | 4.28434 | 29396 ft | 438 kts | 206° |
| 2026-05-08 08:28 | 51.27007 | 4.26347 | 29889 ft | 437 kts | 206° |
| 2026-05-08 08:28 | 51.24263 | 4.24266 | 30319 ft | 436 kts | 206° |
| 2026-05-08 08:28 | 51.21525 | 4.22192 | 30721 ft | 435 kts | 206° |
| 2026-05-08 08:28 | 51.18796 | 4.20127 | 31127 ft | 433 kts | 206° |
| 2026-05-08 08:29 | 51.16029 | 4.18247 | 31518 ft | 432 kts | 201° |
| 2026-05-08 08:29 | 51.13216 | 4.16589 | 31891 ft | 431 kts | 201° |
| 2026-05-08 08:29 | 51.10393 | 4.14993 | 32263 ft | 430 kts | 200° |
| 2026-05-08 08:29 | 51.07571 | 4.13438 | 32630 ft | 429 kts | 200° |
| 2026-05-08 08:30 | 51.04751 | 4.11903 | 32990 ft | 428 kts | 200° |
| 2026-05-08 08:30 | 51.01940 | 4.10380 | 33333 ft | 426 kts | 200° |
| 2026-05-08 08:30 | 50.96340 | 4.07343 | 33991 ft | 424 kts | 200° |
| 2026-05-08 08:31 | 50.93545 | 4.05825 | 34288 ft | 424 kts | 200° |
| 2026-05-08 08:31 | 50.90755 | 4.04309 | 34501 ft | 424 kts | 200° |
| 2026-05-08 08:31 | 50.88001 | 4.02795 | 34687 ft | 425 kts | 201° |
| 2026-05-08 08:31 | 50.85197 | 4.01120 | 34886 ft | 425 kts | 203° |
| 2026-05-08 08:32 | 50.82451 | 3.99381 | 35060 ft | 426 kts | 204° |
| 2026-05-08 08:32 | 50.79729 | 3.97613 | 35088 ft | 428 kts | 204° |
| 2026-05-08 08:32 | 50.74229 | 3.94028 | 35100 ft | 427 kts | 204° |
| 2026-05-08 08:33 | 50.68733 | 3.90488 | 35093 ft | 427 kts | 204° |
| 2026-05-08 08:33 | 50.63222 | 3.86975 | 35094 ft | 427 kts | 203° |
| 2026-05-08 08:34 | 50.57717 | 3.83479 | 35086 ft | 427 kts | 204° |
| 2026-05-08 08:34 | 50.52253 | 3.79831 | 35090 ft | 427 kts | 205° |
| 2026-05-08 08:35 | 50.46806 | 3.76088 | 35093 ft | 427 kts | 205° |
| 2026-05-08 08:35 | 50.41370 | 3.72361 | 35093 ft | 427 kts | 205° |
| 2026-05-08 08:36 | 50.35921 | 3.68654 | 35087 ft | 427 kts | 205° |
| 2026-05-08 08:36 | 50.30485 | 3.64973 | 35088 ft | 429 kts | 205° |
| 2026-05-08 08:37 | 50.25004 | 3.61275 | 35087 ft | 429 kts | 205° |
| 2026-05-08 08:37 | 50.19510 | 3.57577 | 35085 ft | 429 kts | 205° |
| 2026-05-08 08:38 | 50.14020 | 3.53890 | 35075 ft | 430 kts | 205° |
| 2026-05-08 08:38 | 50.08525 | 3.50208 | 35081 ft | 430 kts | 205° |
| 2026-05-08 08:39 | 50.03016 | 3.46527 | 35081 ft | 431 kts | 205° |
| 2026-05-08 08:39 | 49.97496 | 3.42847 | 35078 ft | 431 kts | 205° |
| 2026-05-08 08:40 | 49.91984 | 3.39183 | 35066 ft | 431 kts | 205° |
| 2026-05-08 08:40 | 49.86466 | 3.35523 | 35075 ft | 431 kts | 205° |
| 2026-05-08 08:41 | 49.80945 | 3.31870 | 35072 ft | 432 kts | 205° |
| 2026-05-08 08:41 | 49.75460 | 3.28250 | 35073 ft | 432 kts | 205° |
| 2026-05-08 08:42 | 49.69924 | 3.24606 | 35057 ft | 432 kts | 205° |
| 2026-05-08 08:42 | 49.64390 | 3.20972 | 35066 ft | 432 kts | 205° |
| 2026-05-08 08:43 | 49.58851 | 3.17343 | 35070 ft | 432 kts | 205° |
| 2026-05-08 08:43 | 49.53308 | 3.13721 | 35067 ft | 432 kts | 205° |
| 2026-05-08 08:44 | 49.47889 | 3.09751 | 35058 ft | 430 kts | 213° |
| 2026-05-08 08:44 | 49.42829 | 3.04859 | 35064 ft | 430 kts | 215° |
| 2026-05-08 08:45 | 49.37838 | 2.99783 | 35067 ft | 430 kts | 215° |
| 2026-05-08 08:45 | 49.32861 | 2.94696 | 35067 ft | 430 kts | 215° |
| 2026-05-08 08:46 | 49.27874 | 2.89635 | 35067 ft | 430 kts | 215° |
| 2026-05-08 08:46 | 49.22878 | 2.84596 | 35067 ft | 430 kts | 215° |
| 2026-05-08 08:47 | 49.17880 | 2.79573 | 35068 ft | 430 kts | 215° |
| 2026-05-08 08:47 | 49.12879 | 2.74557 | 35071 ft | 430 kts | 215° |
| 2026-05-08 08:48 | 49.07908 | 2.69584 | 35074 ft | 430 kts | 215° |
| 2026-05-08 08:48 | 49.02900 | 2.64586 | 35068 ft | 430 kts | 215° |
| 2026-05-08 08:49 | 48.97891 | 2.59600 | 35070 ft | 430 kts | 216° |
| 2026-05-08 08:49 | 48.92876 | 2.54618 | 35081 ft | 430 kts | 216° |
| 2026-05-08 08:50 | 48.87867 | 2.49655 | 35077 ft | 430 kts | 215° |
| 2026-05-08 08:50 | 48.82850 | 2.44696 | 35070 ft | 430 kts | 215° |
| 2026-05-08 08:51 | 48.77829 | 2.39745 | 35076 ft | 430 kts | 215° |
| 2026-05-08 08:51 | 48.72811 | 2.34809 | 35077 ft | 430 kts | 215° |
| 2026-05-08 08:52 | 48.67784 | 2.29877 | 35066 ft | 430 kts | 215° |
| 2026-05-08 08:52 | 48.62757 | 2.24955 | 35051 ft | 430 kts | 216° |
| 2026-05-08 08:53 | 48.57610 | 2.20313 | 35066 ft | 433 kts | 207° |
| 2026-05-08 08:53 | 48.51843 | 2.17517 | 35062 ft | 437 kts | 197° |
| 2026-05-08 08:54 | 48.45890 | 2.15514 | 35058 ft | 439 kts | 195° |
| 2026-05-08 08:54 | 48.39929 | 2.13667 | 35037 ft | 441 kts | 195° |
| 2026-05-08 08:55 | 48.33905 | 2.11780 | 35055 ft | 442 kts | 195° |
| 2026-05-08 08:55 | 48.27790 | 2.10534 | 35055 ft | 448 kts | 183° |
| 2026-05-08 08:56 | 48.21537 | 2.11323 | 35049 ft | 452 kts | 176° |
| 2026-05-08 08:56 | 48.15289 | 2.12634 | 35045 ft | 454 kts | 176° |
| 2026-05-08 08:57 | 48.09016 | 2.13388 | 35044 ft | 450 kts | 180° |
| 2026-05-08 08:57 | 48.02781 | 2.13828 | 35045 ft | 448 kts | 181° |
| 2026-05-08 08:58 | 47.96542 | 2.14181 | 35046 ft | 448 kts | 181° |
| 2026-05-08 08:58 | 47.90300 | 2.14528 | 35048 ft | 449 kts | 181° |
| 2026-05-08 08:59 | 47.85099 | 2.14826 | 35047 ft | 449 kts | 181° |
| 2026-05-08 08:59 | 47.77845 | 2.15249 | 35008 ft | 449 kts | 182° |
| 2026-05-08 09:00 | 47.72596 | 2.15556 | 35029 ft | 451 kts | 181° |
| 2026-05-08 09:00 | 47.66321 | 2.15921 | 35024 ft | 452 kts | 181° |
| 2026-05-08 09:01 | 47.60037 | 2.16286 | 35018 ft | 452 kts | 181° |
| 2026-05-08 09:01 | 47.53785 | 2.16648 | 35022 ft | 453 kts | 182° |
| 2026-05-08 09:02 | 47.47480 | 2.17011 | 35020 ft | 453 kts | 182° |
| 2026-05-08 09:02 | 47.41176 | 2.17375 | 35015 ft | 453 kts | 182° |
| 2026-05-08 09:03 | 47.34869 | 2.17738 | 35007 ft | 454 kts | 182° |
| 2026-05-08 09:03 | 47.28538 | 2.18100 | 35015 ft | 456 kts | 182° |
| 2026-05-08 09:04 | 47.22191 | 2.18463 | 35009 ft | 456 kts | 182° |
| 2026-05-08 09:04 | 47.15850 | 2.18826 | 34986 ft | 456 kts | 182° |
| 2026-05-08 09:05 | 47.09492 | 2.19572 | 35004 ft | 463 kts | 172° |
| 2026-05-08 09:05 | 47.03329 | 2.22397 | 35003 ft | 469 kts | 163° |
| 2026-05-08 09:06 | 46.97246 | 2.25904 | 35004 ft | 470 kts | 161° |
| 2026-05-08 09:06 | 46.91184 | 2.29520 | 35002 ft | 471 kts | 161° |
| 2026-05-08 09:07 | 46.85091 | 2.33110 | 35002 ft | 472 kts | 162° |
| 2026-05-08 09:07 | 46.78990 | 2.36660 | 34998 ft | 472 kts | 162° |
| 2026-05-08 09:08 | 46.72890 | 2.40188 | 35001 ft | 472 kts | 162° |
| 2026-05-08 09:08 | 46.66780 | 2.43711 | 35005 ft | 472 kts | 162° |
| 2026-05-08 09:09 | 46.60693 | 2.47215 | 34999 ft | 469 kts | 162° |
| 2026-05-08 09:09 | 46.54618 | 2.50703 | 34999 ft | 469 kts | 162° |
| 2026-05-08 09:10 | 46.48532 | 2.54189 | 34994 ft | 471 kts | 162° |
| 2026-05-08 09:10 | 46.42431 | 2.57676 | 34998 ft | 472 kts | 162° |
| 2026-05-08 09:11 | 46.36316 | 2.61163 | 34998 ft | 472 kts | 162° |
| 2026-05-08 09:11 | 46.30243 | 2.64617 | 34996 ft | 473 kts | 162° |
| 2026-05-08 09:12 | 46.24110 | 2.68096 | 34993 ft | 473 kts | 162° |
| 2026-05-08 09:12 | 46.17975 | 2.71569 | 34996 ft | 473 kts | 162° |
| 2026-05-08 09:13 | 46.11840 | 2.75034 | 34987 ft | 474 kts | 162° |
| 2026-05-08 09:13 | 46.05680 | 2.78503 | 35000 ft | 475 kts | 162° |
| 2026-05-08 09:14 | 45.99533 | 2.81952 | 34999 ft | 473 kts | 162° |
| 2026-05-08 09:14 | 45.93366 | 2.85261 | 34996 ft | 473 kts | 163° |
| 2026-05-08 09:15 | 45.87169 | 2.88507 | 35011 ft | 474 kts | 163° |
| 2026-05-08 09:15 | 45.81011 | 2.91730 | 35015 ft | 474 kts | 163° |
| 2026-05-08 09:16 | 45.74745 | 2.94554 | 35017 ft | 468 kts | 174° |
| 2026-05-08 09:16 | 45.68313 | 2.95173 | 35005 ft | 462 kts | 185° |
| 2026-05-08 09:17 | 45.61883 | 2.95062 | 35007 ft | 462 kts | 186° |
| 2026-05-08 09:17 | 45.55458 | 2.94826 | 35013 ft | 462 kts | 186° |
| 2026-05-08 09:18 | 45.49026 | 2.94610 | 35013 ft | 462 kts | 186° |
| 2026-05-08 09:18 | 45.42581 | 2.94424 | 35009 ft | 462 kts | 186° |
| 2026-05-08 09:19 | 45.36147 | 2.94254 | 35017 ft | 463 kts | 186° |
| 2026-05-08 09:19 | 45.29705 | 2.94088 | 35015 ft | 463 kts | 186° |
| 2026-05-08 09:20 | 45.23269 | 2.93921 | 35021 ft | 463 kts | 186° |
| 2026-05-08 09:20 | 45.16829 | 2.93753 | 35018 ft | 463 kts | 186° |
| 2026-05-08 09:21 | 45.10436 | 2.93587 | 35016 ft | 462 kts | 187° |
| 2026-05-08 09:23 | 44.87926 | 2.93001 | 35016 ft | 461 kts | 187° |
| 2026-05-08 09:23 | 44.81521 | 2.92740 | 35018 ft | 460 kts | 188° |
| 2026-05-08 09:24 | 44.75140 | 2.92269 | 35013 ft | 459 kts | 189° |
| 2026-05-08 09:24 | 44.68759 | 2.91763 | 35015 ft | 459 kts | 189° |
| 2026-05-08 09:25 | 44.62372 | 2.91278 | 35018 ft | 459 kts | 189° |
| 2026-05-08 09:25 | 44.55990 | 2.90811 | 35003 ft | 459 kts | 189° |
| 2026-05-08 09:26 | 44.49629 | 2.90352 | 35014 ft | 457 kts | 189° |
| 2026-05-08 09:26 | 44.43288 | 2.89893 | 35017 ft | 456 kts | 189° |
| 2026-05-08 09:27 | 44.36948 | 2.89434 | 35003 ft | 456 kts | 189° |
| 2026-05-08 09:27 | 44.30628 | 2.88979 | 35015 ft | 453 kts | 189° |
| 2026-05-08 09:28 | 44.24356 | 2.88526 | 35015 ft | 453 kts | 189° |
| 2026-05-08 09:28 | 44.18062 | 2.88073 | 34997 ft | 453 kts | 189° |
| 2026-05-08 09:29 | 44.11787 | 2.87625 | 35012 ft | 450 kts | 189° |
| 2026-05-08 09:29 | 44.05549 | 2.87179 | 35011 ft | 449 kts | 189° |
| 2026-05-08 09:30 | 43.99315 | 2.86730 | 34998 ft | 449 kts | 189° |
| 2026-05-08 09:30 | 43.93092 | 2.86289 | 35011 ft | 444 kts | 190° |
| 2026-05-08 09:31 | 43.86922 | 2.85851 | 35006 ft | 444 kts | 190° |
| 2026-05-08 09:31 | 43.80748 | 2.85411 | 35007 ft | 444 kts | 190° |
| 2026-05-08 09:32 | 43.74567 | 2.85160 | 35008 ft | 445 kts | 187° |
| 2026-05-08 09:32 | 43.68376 | 2.85264 | 35006 ft | 445 kts | 186° |
| 2026-05-08 09:33 | 43.62178 | 2.85420 | 35011 ft | 445 kts | 186° |
| 2026-05-08 09:33 | 43.55977 | 2.85544 | 35007 ft | 444 kts | 186° |
| 2026-05-08 09:34 | 43.49816 | 2.85640 | 35009 ft | 442 kts | 186° |
| 2026-05-08 09:34 | 43.43656 | 2.85725 | 35009 ft | 442 kts | 186° |
| 2026-05-08 09:35 | 43.37546 | 2.85811 | 35000 ft | 442 kts | 186° |
| 2026-05-08 09:35 | 43.31413 | 2.85902 | 35005 ft | 440 kts | 186° |
| 2026-05-08 09:36 | 43.25293 | 2.85991 | 35005 ft | 440 kts | 186° |
| 2026-05-08 09:36 | 43.19167 | 2.86079 | 34991 ft | 440 kts | 186° |
| 2026-05-08 09:37 | 43.13062 | 2.86168 | 35007 ft | 438 kts | 186° |
| 2026-05-08 09:37 | 43.06968 | 2.86257 | 35006 ft | 437 kts | 186° |
| 2026-05-08 09:38 | 43.00887 | 2.86343 | 35009 ft | 437 kts | 186° |
| 2026-05-08 09:38 | 42.94803 | 2.86429 | 35015 ft | 436 kts | 186° |
| 2026-05-08 09:39 | 42.88751 | 2.86518 | 35022 ft | 434 kts | 186° |
| 2026-05-08 09:39 | 42.82711 | 2.86603 | 35022 ft | 434 kts | 186° |
| 2026-05-08 09:40 | 42.76666 | 2.86686 | 35022 ft | 434 kts | 187° |
| 2026-05-08 09:40 | 42.70692 | 2.86173 | 35021 ft | 429 kts | 191° |
| 2026-05-08 09:41 | 42.64744 | 2.85496 | 35018 ft | 429 kts | 191° |
| 2026-05-08 09:41 | 42.59798 | 2.84921 | 35018 ft | 429 kts | 191° |
| 2026-05-08 09:42 | 42.53852 | 2.84227 | 35015 ft | 428 kts | 191° |
| 2026-05-08 09:42 | 42.47911 | 2.83534 | 35018 ft | 427 kts | 191° |
| 2026-05-08 09:43 | 42.42060 | 2.82471 | 35018 ft | 422 kts | 196° |
| 2026-05-08 09:43 | 42.36317 | 2.81051 | 35002 ft | 422 kts | 196° |
| 2026-05-08 09:44 | 42.30565 | 2.79629 | 35015 ft | 419 kts | 196° |
| 2026-05-08 09:44 | 42.24829 | 2.78219 | 35019 ft | 418 kts | 196° |
| 2026-05-08 09:45 | 42.19100 | 2.76814 | 35022 ft | 419 kts | 196° |
| 2026-05-08 09:45 | 42.13540 | 2.74810 | 35021 ft | 405 kts | 214° |
| 2026-05-08 09:45 | 42.11334 | 2.72556 | 35024 ft | 395 kts | 228° |
| 2026-05-08 09:46 | 42.09469 | 2.69847 | 35018 ft | 395 kts | 231° |
| 2026-05-08 09:46 | 42.05852 | 2.64237 | 35023 ft | 397 kts | 231° |
| 2026-05-08 09:47 | 42.02206 | 2.58641 | 35022 ft | 398 kts | 231° |
| 2026-05-08 09:47 | 41.98566 | 2.53101 | 35022 ft | 398 kts | 230° |
| 2026-05-08 09:48 | 41.94889 | 2.47534 | 35015 ft | 399 kts | 230° |
| 2026-05-08 09:48 | 41.91201 | 2.41963 | 35019 ft | 398 kts | 230° |
| 2026-05-08 09:49 | 41.87518 | 2.36407 | 35020 ft | 398 kts | 230° |
| 2026-05-08 09:49 | 41.83831 | 2.30856 | 35018 ft | 398 kts | 230° |
| 2026-05-08 09:50 | 41.80140 | 2.25310 | 35031 ft | 399 kts | 230° |
| 2026-05-08 09:50 | 41.76437 | 2.19758 | 35031 ft | 400 kts | 230° |
| 2026-05-08 09:51 | 41.72750 | 2.14243 | 35041 ft | 398 kts | 229° |
| 2026-05-08 09:51 | 41.68662 | 2.09315 | 35043 ft | 401 kts | 208° |
| 2026-05-08 09:51 | 41.65981 | 2.08209 | 35046 ft | 410 kts | 192° |
| 2026-05-08 09:52 | 41.63097 | 2.08291 | 35040 ft | 422 kts | 176° |
| 2026-05-08 09:52 | 41.57287 | 2.09784 | 35054 ft | 424 kts | 176° |
| 2026-05-08 09:52 | 41.54484 | 2.10798 | 35041 ft | 417 kts | 161° |
| 2026-05-08 09:53 | 41.52086 | 2.12926 | 35043 ft | 415 kts | 142° |
| 2026-05-08 09:53 | 41.50347 | 2.15999 | 35054 ft | 421 kts | 122° |
| 2026-05-08 09:53 | 41.49445 | 2.19754 | 35051 ft | 433 kts | 101° |
| 2026-05-08 09:53 | 41.49498 | 2.23805 | 35049 ft | 443 kts | 82° |
| 2026-05-08 09:54 | 41.50100 | 2.27825 | 34788 ft | 440 kts | 86° |
| 2026-05-08 09:54 | 41.50053 | 2.31846 | 34108 ft | 431 kts | 107° |
| 2026-05-08 09:54 | 41.49264 | 2.35671 | 33434 ft | 428 kts | 109° |
| 2026-05-08 09:54 | 41.48932 | 2.39634 | 32910 ft | 434 kts | 88° |
| 2026-05-08 09:55 | 41.49557 | 2.43562 | 32451 ft | 433 kts | 74° |
| 2026-05-08 09:55 | 41.50473 | 2.47366 | 32038 ft | 428 kts | 73° |
| 2026-05-08 09:55 | 41.51362 | 2.51133 | 31624 ft | 424 kts | 74° |
| 2026-05-08 09:55 | 41.52236 | 2.54867 | 31209 ft | 419 kts | 74° |
| 2026-05-08 09:56 | 41.53112 | 2.58559 | 30798 ft | 415 kts | 71° |
| 2026-05-08 09:56 | 41.54149 | 2.62141 | 30418 ft | 411 kts | 66° |
| 2026-05-08 09:56 | 41.55326 | 2.65600 | 30004 ft | 408 kts | 65° |
| 2026-05-08 09:56 | 41.56516 | 2.69016 | 29536 ft | 404 kts | 65° |
| 2026-05-08 09:57 | 41.58835 | 2.75780 | 28692 ft | 395 kts | 70° |
| 2026-05-08 09:57 | 41.59408 | 2.79316 | 28241 ft | 387 kts | 92° |
| 2026-05-08 09:57 | 41.59079 | 2.82813 | 27808 ft | 375 kts | 113° |
| 2026-05-08 09:58 | 41.57919 | 2.85837 | 27375 ft | 359 kts | 135° |
| 2026-05-08 09:58 | 41.56144 | 2.87989 | 26942 ft | 341 kts | 156° |
| 2026-05-08 09:58 | 41.53992 | 2.89069 | 26490 ft | 324 kts | 179° |
| 2026-05-08 09:58 | 41.51804 | 2.88952 | 25997 ft | 310 kts | 201° |
| 2026-05-08 09:59 | 41.49923 | 2.87706 | 25529 ft | 299 kts | 224° |
| 2026-05-08 09:59 | 41.48646 | 2.85573 | 25041 ft | 295 kts | 246° |
| 2026-05-08 09:59 | 41.48183 | 2.82928 | 24556 ft | 296 kts | 270° |
| 2026-05-08 09:59 | 41.48621 | 2.80240 | 24076 ft | 302 kts | 293° |
| 2026-05-08 10:00 | 41.49897 | 2.77992 | 23616 ft | 311 kts | 317° |
| 2026-05-08 10:00 | 41.51804 | 2.76602 | 23096 ft | 319 kts | 341° |
| 2026-05-08 10:00 | 41.54021 | 2.76344 | 22655 ft | 325 kts | 5° |
| 2026-05-08 10:00 | 41.56165 | 2.77288 | 22243 ft | 327 kts | 29° |
| 2026-05-08 10:01 | 41.57874 | 2.79275 | 21808 ft | 328 kts | 53° |
| 2026-05-08 10:01 | 41.59032 | 2.81888 | 21425 ft | 326 kts | 63° |
| 2026-05-08 10:01 | 41.59878 | 2.84676 | 21023 ft | 323 kts | 79° |
| 2026-05-08 10:01 | 41.59931 | 2.87631 | 20602 ft | 318 kts | 103° |
| 2026-05-08 10:02 | 41.59110 | 2.90313 | 20186 ft | 310 kts | 128° |
| 2026-05-08 10:02 | 41.57582 | 2.92264 | 19771 ft | 302 kts | 153° |
| 2026-05-08 10:02 | 41.55640 | 2.93212 | 19366 ft | 296 kts | 169° |
| 2026-05-08 10:02 | 41.53642 | 2.93870 | 18982 ft | 295 kts | 167° |
| 2026-05-08 10:03 | 41.51667 | 2.94565 | 18591 ft | 293 kts | 167° |
| 2026-05-08 10:03 | 41.49700 | 2.95273 | 18191 ft | 292 kts | 167° |
| 2026-05-08 10:03 | 41.47745 | 2.95973 | 17757 ft | 290 kts | 167° |
| 2026-05-08 10:03 | 41.45804 | 2.96664 | 17360 ft | 288 kts | 167° |
| 2026-05-08 10:04 | 41.43878 | 2.97345 | 16968 ft | 285 kts | 167° |
| 2026-05-08 10:04 | 41.41963 | 2.98017 | 16567 ft | 283 kts | 167° |
| 2026-05-08 10:04 | 41.40067 | 2.98680 | 16182 ft | 281 kts | 167° |
| 2026-05-08 10:04 | 41.38184 | 2.99338 | 15803 ft | 279 kts | 167° |
| 2026-05-08 10:05 | 41.36317 | 2.99990 | 15430 ft | 276 kts | 167° |
| 2026-05-08 10:05 | 41.34464 | 3.00635 | 15058 ft | 274 kts | 167° |
| 2026-05-08 10:05 | 41.32622 | 3.01267 | 14680 ft | 273 kts | 167° |
| 2026-05-08 10:05 | 41.30790 | 3.01888 | 14308 ft | 271 kts | 167° |
| 2026-05-08 10:06 | 41.28976 | 3.02520 | 13970 ft | 268 kts | 167° |
| 2026-05-08 10:06 | 41.27182 | 3.03160 | 13598 ft | 266 kts | 167° |
| 2026-05-08 10:06 | 41.25402 | 3.03793 | 13208 ft | 263 kts | 167° |
| 2026-05-08 10:06 | 41.23660 | 3.04404 | 12811 ft | 262 kts | 167° |
| 2026-05-08 10:07 | 41.21876 | 3.05016 | 12420 ft | 260 kts | 167° |
| 2026-05-08 10:07 | 41.20145 | 3.05605 | 11919 ft | 263 kts | 167° |
| 2026-05-08 10:07 | 41.18334 | 3.06203 | 11181 ft | 274 kts | 167° |
| 2026-05-08 10:07 | 41.16430 | 3.06802 | 10450 ft | 285 kts | 167° |
| 2026-05-08 10:08 | 41.14493 | 3.07391 | 9986 ft | 284 kts | 167° |
| 2026-05-08 10:08 | 41.12579 | 3.07961 | 9560 ft | 280 kts | 167° |
| 2026-05-08 10:08 | 41.10680 | 3.08524 | 9018 ft | 280 kts | 167° |
| 2026-05-08 10:08 | 41.08790 | 3.09084 | 8567 ft | 276 kts | 166° |
| 2026-05-08 10:09 | 41.06918 | 3.09542 | 8180 ft | 273 kts | 177° |
| 2026-05-08 10:09 | 41.05069 | 3.09067 | 8055 ft | 275 kts | 204° |
| 2026-05-08 10:09 | 41.03571 | 3.07487 | 8037 ft | 279 kts | 231° |
| 2026-05-08 10:09 | 41.02764 | 3.05177 | 8039 ft | 284 kts | 257° |
| 2026-05-08 10:10 | 41.02813 | 3.02527 | 8042 ft | 288 kts | 284° |
| 2026-05-08 10:10 | 41.03714 | 3.00215 | 8037 ft | 290 kts | 310° |
| 2026-05-08 10:10 | 41.05332 | 2.98603 | 8041 ft | 290 kts | 338° |
| 2026-05-08 10:10 | 41.07266 | 2.98087 | 8045 ft | 289 kts | 2° |
| 2026-05-08 10:11 | 41.09284 | 2.98370 | 8043 ft | 288 kts | 11° |
| 2026-05-08 10:11 | 41.11232 | 2.98833 | 8044 ft | 288 kts | 12° |
| 2026-05-08 10:11 | 41.13203 | 2.99325 | 7746 ft | 288 kts | 12° |
| 2026-05-08 10:11 | 41.15173 | 2.99818 | 7281 ft | 286 kts | 12° |
| 2026-05-08 10:12 | 41.17115 | 3.00305 | 6860 ft | 282 kts | 12° |
| 2026-05-08 10:12 | 41.19010 | 3.00772 | 6669 ft | 271 kts | 12° |
| 2026-05-08 10:12 | 41.20824 | 3.01212 | 6516 ft | 258 kts | 12° |
| 2026-05-08 10:12 | 41.22558 | 3.01632 | 6280 ft | 250 kts | 12° |
| 2026-05-08 10:13 | 41.24268 | 3.02014 | 5916 ft | 249 kts | 6° |
| 2026-05-08 10:13 | 41.25981 | 3.01736 | 5488 ft | 251 kts | 339° |
| 2026-05-08 10:13 | 41.27391 | 3.00440 | 5148 ft | 246 kts | 310° |
| 2026-05-08 10:13 | 41.28410 | 2.98661 | 5055 ft | 245 kts | 303° |
| 2026-05-08 10:14 | 41.29362 | 2.96770 | 4720 ft | 247 kts | 302° |
| 2026-05-08 10:14 | 41.30301 | 2.94870 | 4372 ft | 244 kts | 302° |
| 2026-05-08 10:14 | 41.31223 | 2.92990 | 4024 ft | 241 kts | 302° |
| 2026-05-08 10:14 | 41.32128 | 2.91116 | 3652 ft | 240 kts | 302° |
| 2026-05-08 10:15 | 41.33029 | 2.89240 | 3272 ft | 241 kts | 302° |